Time;durP1;ratioP1;P1;durP2;ratioP2;P2;SDS_P1;SDS_P2;PMS_P1;PMS_P2;Temp;Humidity;BMP_temperature;BMP_pressure;BME280_temperature;BME280_humidity;BME280_pressure;Samples;Min_cycle;Max_cycle;Signal;HPM_P1;HPM_P2
2021/11/08 00:01:04;;;;;;;4.00;3.80;;;;;;;6.35;100.00;101572.78;4409925;32;20068;-71
2021/11/08 00:03:35;;;;;;;3.40;3.30;;;;;;;6.08;100.00;101514.28;4407685;32;20069;-71
2021/11/08 00:06:04;;;;;;;3.40;3.30;;;;;;;6.42;100.00;101557.88;4411039;32;20310;-71
2021/11/08 00:08:29;;;;;;;3.33;3.22;;;;;;;6.52;100.00;101565.47;4407413;32;20115;-71
2021/11/08 00:10:55;;;;;;;3.60;3.50;;;;;;;6.52;100.00;101577.66;4390436;32;20251;-71
2021/11/08 00:13:21;;;;;;;3.72;3.55;;;;;;;6.39;100.00;101558.78;4404674;32;20615;-71
2021/11/08 00:20:56;;;;;;;3.85;3.65;;;;;;;6.51;100.00;101568.97;4411204;32;20448;-71
2021/11/08 00:23:22;;;;;;;3.40;3.30;;;;;;;6.16;100.00;101502.78;4408688;32;20144;-71
2021/11/08 00:25:47;;;;;;;5.18;4.87;;;;;;;6.53;100.00;101574.16;4411367;32;20086;-71
2021/11/08 00:28:15;;;;;;;3.50;3.40;;;;;;;6.41;100.00;101548.34;4407258;32;20199;-72
2021/11/08 00:30:40;;;;;;;4.65;4.45;;;;;;;6.46;100.00;101559.53;4423868;32;20092;-71
2021/11/08 00:33:10;;;;;;;3.30;3.20;;;;;;;6.12;100.00;101523.75;4414794;32;20095;-72
2021/11/08 00:35:37;;;;;;;5.25;4.93;;;;;;;6.43;100.00;101577.84;4405089;32;20099;-71
2021/11/08 00:38:02;;;;;;;3.20;3.10;;;;;;;6.33;100.00;101575.41;4409286;32;20067;-71
2021/11/08 00:40:28;;;;;;;3.20;3.10;;;;;;;6.16;100.00;101573.16;4404478;32;20652;-72
2021/11/08 00:42:53;;;;;;;3.28;3.17;;;;;;;6.21;100.00;101567.84;4424674;32;20064;-71
2021/11/08 00:45:20;;;;;;;3.40;3.30;;;;;;;6.15;100.00;101571.47;4404200;32;20056;-71
2021/11/08 00:47:45;;;;;;;4.68;4.47;;;;;;;5.67;100.00;101508.94;4406185;32;20172;-71
2021/11/08 00:50:12;;;;;;;3.40;3.30;;;;;;;6.06;100.00;101573.38;4410236;32;20068;-71
2021/11/08 00:52:37;;;;;;;4.20;4.00;;;;;;;5.97;100.00;101583.09;4407077;32;20076;-71
2021/11/08 00:55:03;;;;;;;3.53;3.40;;;;;;;5.79;100.00;101557.31;4400461;32;20060;-71
2021/11/08 00:57:33;;;;;;;3.40;3.30;;;;;;;5.72;100.00;101558.34;4414725;32;20309;-71
2021/11/08 00:59:59;;;;;;;3.55;3.45;;;;;;;5.70;100.00;101555.75;4410319;32;20104;-71
2021/11/08 01:02:27;;;;;;;3.40;3.30;;;;;;;5.83;100.00;101590.25;4409573;32;20064;-71
2021/11/08 01:04:53;;;;;;;3.58;3.47;;;;;;;5.85;100.00;101583.25;4407697;32;20834;-71
2021/11/08 01:07:18;;;;;;;3.20;3.10;;;;;;;5.33;100.00;101495.66;4406939;32;20128;-71
2021/11/08 01:09:45;;;;;;;4.47;4.28;;;;;;;5.88;100.00;101588.44;4403458;32;20700;-71
2021/11/08 01:12:11;;;;;;;3.25;3.15;;;;;;;5.94;100.00;101585.72;4409419;32;20068;-71
2021/11/08 01:14:36;;;;;;;5.00;4.75;;;;;;;6.02;100.00;101592.56;4407569;32;20065;-71
2021/11/08 01:17:02;;;;;;;3.80;3.60;;;;;;;6.04;100.00;101581.22;4407360;32;20144;-71
2021/11/08 01:19:28;;;;;;;3.15;3.05;;;;;;;4.52;100.00;101336.69;4414362;32;20076;-72
2021/11/08 01:22:03;;;;;;;3.53;3.42;;;;;;;6.22;100.00;101587.81;4385508;32;20200;-72
2021/11/08 01:24:29;;;;;;;3.35;3.25;;;;;;;6.27;100.00;101596.37;4413509;32;20116;-71
2021/11/08 01:26:54;;;;;;;3.30;3.20;;;;;;;6.22;100.00;101615.66;4405160;32;20183;-71
2021/11/08 01:29:20;;;;;;;3.33;3.22;;;;;;;6.30;100.00;101591.12;4401366;32;20080;-72
2021/11/08 01:31:45;;;;;;;4.95;4.75;;;;;;;6.30;100.00;101600.72;4394632;32;20648;-72
2021/11/08 01:34:10;;;;;;;3.60;3.50;;;;;;;6.25;100.00;101606.00;4408565;32;20149;-71
2021/11/08 01:36:38;;;;;;;4.87;4.68;;;;;;;6.21;100.00;101603.47;4396434;32;20631;-68
2021/11/08 01:39:16;;;;;;;3.40;3.30;;;;;;;6.21;100.00;101603.47;4407550;32;20435;-72
2021/11/08 01:41:43;;;;;;;4.68;4.47;;;;;;;6.20;100.00;101597.41;4412469;32;20147;-71
2021/11/08 01:44:08;;;;;;;3.40;3.30;;;;;;;5.90;100.00;101552.78;4406639;32;20167;-71
2021/11/08 01:46:33;;;;;;;4.18;4.00;;;;;;;6.20;100.00;101607.84;4406893;32;20141;-72
2021/11/08 01:48:59;;;;;;;3.37;3.28;;;;;;;6.21;100.00;101606.09;4395511;32;20094;-71
2021/11/08 01:51:24;;;;;;;3.45;3.35;;;;;;;6.15;100.00;101591.44;4416828;32;20760;-72
2021/11/08 01:53:50;;;;;;;4.45;4.25;;;;;;;6.29;100.00;101601.59;4405521;32;20653;-72
2021/11/08 01:56:18;;;;;;;3.28;3.17;;;;;;;6.31;100.00;101597.19;4410021;32;20132;-72
2021/11/08 01:58:43;;;;;;;4.78;4.47;;;;;;;6.22;100.00;101579.16;4389971;32;20064;-72
2021/11/08 02:01:08;;;;;;;3.50;3.35;;;;;;;6.37;100.00;101599.69;4405499;32;20614;-71
2021/11/08 02:03:34;;;;;;;4.47;4.28;;;;;;;6.40;100.00;101599.63;4389964;32;20156;-71
2021/11/08 02:05:59;;;;;;;3.30;3.20;;;;;;;6.43;100.00;101601.31;4407298;32;20072;-72
2021/11/08 02:08:27;;;;;;;3.30;3.20;;;;;;;6.45;100.00;101608.19;4408690;32;20562;-71
2021/11/08 02:10:54;;;;;;;3.70;3.60;;;;;;;6.51;100.00;101602.00;4391278;32;20087;-71
2021/11/08 02:13:20;;;;;;;3.30;3.20;;;;;;;6.53;100.00;101602.84;4406285;32;20096;-71
2021/11/08 02:15:45;;;;;;;4.85;4.65;;;;;;;6.54;100.00;101607.19;4394272;32;20186;-72
2021/11/08 02:18:12;;;;;;;3.45;3.35;;;;;;;6.54;100.00;101608.03;4406760;32;20605;-72
2021/11/08 02:20:37;;;;;;;4.72;4.53;;;;;;;6.55;100.00;101603.66;4390020;32;20443;-71
2021/11/08 02:23:05;;;;;;;4.35;4.15;;;;;;;6.56;100.00;101605.41;4393278;32;20087;-72
2021/11/08 02:25:33;;;;;;;3.55;3.45;;;;;;;4.90;99.88;101325.59;4405730;32;20637;-72
2021/11/08 02:27:58;;;;;;;3.30;3.20;;;;;;;6.58;100.00;101601.84;4395928;32;20191;-71
2021/11/08 02:30:27;;;;;;;3.90;3.70;;;;;;;6.62;100.00;101610.47;4408173;32;20248;-71
2021/11/08 02:32:56;;;;;;;3.60;3.50;;;;;;;6.62;99.81;101605.25;4391814;32;20110;-72
2021/11/08 02:35:21;;;;;;;3.50;3.40;;;;;;;6.39;100.00;101550.97;4409503;32;20637;-71
2021/11/08 02:37:47;;;;;;;4.97;4.78;;;;;;;6.72;98.68;101606.78;4389329;32;20072;-71
2021/11/08 02:40:20;;;;;;;3.28;3.17;;;;;;;6.78;99.00;101611.84;4411332;32;20100;-71
2021/11/08 02:42:50;;;;;;;5.15;4.95;;;;;;;6.75;99.01;101614.53;4408037;32;20685;-71
2021/11/08 02:45:20;;;;;;;3.50;3.40;;;;;;;6.76;98.29;101628.44;4416559;32;20176;-72
2021/11/08 02:47:46;;;;;;;4.95;4.75;;;;;;;6.76;98.30;101618.88;4402404;32;20245;-71
2021/11/08 02:50:14;;;;;;;3.65;3.50;;;;;;;6.58;99.20;101583.59;4408639;32;20575;-71
2021/11/08 02:52:39;;;;;;;5.43;5.10;;;;;;;6.78;99.21;101611.00;4406592;32;20714;-71
2021/11/08 02:55:05;;;;;;;3.55;3.45;;;;;;;6.70;98.46;101592.91;4410006;32;20084;-71
2021/11/08 02:57:34;;;;;;;4.60;4.40;;;;;;;6.37;98.20;101532.78;4420449;32;20190;-72
2021/11/08 03:00:01;;;;;;;3.50;3.40;;;;;;;6.80;98.68;101614.44;4395781;32;20072;-71
2021/11/08 03:02:26;;;;;;;3.58;3.47;;;;;;;6.84;98.88;101615.25;4403975;32;20091;-71
2021/11/08 03:04:54;;;;;;;3.70;3.60;;;;;;;6.86;98.45;101613.47;4406163;32;20625;-71
2021/11/08 03:07:20;;;;;;;3.50;3.40;;;;;;;6.49;97.98;101556.84;4395611;32;20154;-71
2021/11/08 03:09:56;;;;;;;5.15;4.95;;;;;;;6.88;98.42;101616.87;4413963;32;20076;-71
2021/11/08 03:12:26;;;;;;;3.50;3.40;;;;;;;6.85;97.89;101619.56;4399579;32;20065;-72
2021/11/08 03:17:32;;;;;;;3.40;3.28;;;;;;;6.89;98.04;101623.81;4423753;32;20711;-71
2021/11/08 03:19:58;;;;;;;3.53;3.43;;;;;;;6.88;98.29;101629.94;4392874;32;20084;-72
2021/11/08 03:22:30;;;;;;;4.47;4.18;;;;;;;6.89;97.99;101631.62;4413301;32;20161;-71
2021/11/08 03:24:59;;;;;;;3.70;3.60;;;;;;;6.87;98.83;101630.81;4405342;32;20089;-71
2021/11/08 03:27:35;;;;;;;3.70;3.60;;;;;;;6.88;98.27;101622.97;4406813;32;20068;-71
2021/11/08 03:30:01;;;;;;;3.50;3.40;;;;;;;6.79;99.19;101615.31;4398292;32;20072;-71
2021/11/08 03:32:26;;;;;;;3.47;3.37;;;;;;;6.86;98.31;101624.75;4407751;32;20083;-71
2021/11/08 03:34:59;;;;;;;3.50;3.40;;;;;;;6.82;98.02;101617.03;4396530;32;20076;-71
2021/11/08 03:37:24;;;;;;;3.60;3.50;;;;;;;6.86;98.10;101621.28;4408262;32;20065;-71
2021/11/08 03:39:51;;;;;;;4.15;3.95;;;;;;;6.86;98.35;101618.69;4385179;32;20447;-71
2021/11/08 03:42:17;;;;;;;3.65;3.55;;;;;;;6.82;98.75;101610.06;4410660;32;20871;-71
2021/11/08 03:44:43;;;;;;;4.70;4.50;;;;;;;6.92;99.07;101626.37;4394309;32;21040;-71
2021/11/08 03:47:08;;;;;;;3.70;3.60;;;;;;;6.91;98.44;101629.84;4405533;32;20084;-71
2021/11/08 03:49:33;;;;;;;4.20;4.03;;;;;;;6.90;97.98;101638.59;4391145;32;20106;-72
2021/11/08 03:52:02;;;;;;;3.67;3.58;;;;;;;6.70;98.05;101608.56;4412762;32;20068;-71
2021/11/08 03:54:27;;;;;;;3.60;3.50;;;;;;;6.92;98.28;101632.44;4406913;32;20161;-71
2021/11/08 03:56:53;;;;;;;3.60;3.50;;;;;;;6.72;97.74;101621.59;4405479;32;20657;-71
2021/11/08 03:59:18;;;;;;;3.65;3.55;;;;;;;6.51;98.71;101573.31;4406806;32;20181;-71
2021/11/08 04:01:44;;;;;;;4.80;4.60;;;;;;;6.80;98.38;101640.53;4408307;32;20456;-71
2021/11/08 04:04:09;;;;;;;3.60;3.50;;;;;;;6.25;98.46;101550.41;4405840;32;20085;-71
2021/11/08 04:06:37;;;;;;;4.93;4.72;;;;;;;6.81;97.78;101637.00;4404781;32;20064;-72
2021/11/08 04:09:02;;;;;;;3.60;3.50;;;;;;;6.87;98.57;101646.47;4398158;32;20580;-71
2021/11/08 04:11:28;;;;;;;3.37;3.28;;;;;;;6.85;98.74;101654.31;4409703;32;20077;-72
2021/11/08 04:13:56;;;;;;;3.47;3.37;;;;;;;6.85;98.40;101648.25;4413991;32;20202;-72
2021/11/08 04:16:21;;;;;;;3.50;3.40;;;;;;;6.83;98.74;101644.81;4409942;32;20100;-71
2021/11/08 04:18:51;;;;;;;4.25;4.05;;;;;;;6.82;98.12;101640.50;4383273;32;20814;-71
2021/11/08 04:21:16;;;;;;;3.40;3.30;;;;;;;6.64;98.86;101619.13;4411250;32;20085;-72
2021/11/08 04:23:42;;;;;;;3.60;3.40;;;;;;;6.76;98.05;101644.94;4402495;32;20069;-71
2021/11/08 04:26:08;;;;;;;3.40;3.30;;;;;;;6.56;98.45;101626.25;4408647;32;20080;-71
2021/11/08 04:28:35;;;;;;;3.92;3.78;;;;;;;6.76;99.29;101641.50;4405468;32;20139;-72
2021/11/08 04:31:00;;;;;;;3.55;3.45;;;;;;;6.64;99.29;101623.50;4410137;32;20204;-71
2021/11/08 04:33:36;;;;;;;3.70;3.60;;;;;;;6.68;99.26;101633.81;4401019;32;20745;-71
2021/11/08 04:36:23;;;;;;;3.60;3.50;;;;;;;6.75;99.16;101648.44;4414240;32;20234;-71
2021/11/08 04:42:23;;;;;;;4.50;4.30;;;;;;;6.38;98.56;101586.63;4425930;32;20082;-72
2021/11/08 04:47:22;;;;;;;3.55;3.45;;;;;;;6.76;98.47;101658.00;4414714;32;20661;-71
2021/11/08 04:53:02;;;;;;;5.10;4.70;;;;;;;6.54;98.60;101617.59;4417708;32;20149;-71
2021/11/08 05:30:18;;;;;;;3.50;3.40;;;;;;;6.69;98.75;101679.88;4418536;32;20982;-70
2021/11/08 05:32:46;;;;;;;4.97;4.78;;;;;;;6.74;99.41;101678.03;4407638;32;20081;-71
2021/11/08 05:35:13;;;;;;;3.40;3.30;;;;;;;6.74;99.53;101677.19;4408768;32;20426;-70
2021/11/08 05:37:41;;;;;;;4.82;4.62;;;;;;;6.76;98.42;101685.84;4413199;32;20073;-71
2021/11/08 05:40:10;;;;;;;3.90;3.70;;;;;;;6.76;98.79;101701.50;4395825;32;20068;-71
2021/11/08 05:42:36;;;;;;;5.85;5.57;;;;;;;6.76;98.38;101672.78;4402345;32;20103;-71
2021/11/08 05:45:02;;;;;;;3.70;3.60;;;;;;;6.78;99.27;101684.06;4400897;32;20061;-70
2021/11/08 05:47:29;;;;;;;4.12;3.85;;;;;;;6.75;99.70;101686.72;4413014;32;20091;-70
2021/11/08 05:49:54;;;;;;;3.97;3.78;;;;;;;6.77;98.72;101683.19;4417639;32;20093;-70
2021/11/08 05:52:20;;;;;;;4.10;3.90;;;;;;;6.77;98.56;101690.16;4419565;32;20072;-70
2021/11/08 05:54:45;;;;;;;5.25;5.05;;;;;;;6.77;98.93;101692.75;4403575;32;20560;-70
2021/11/08 06:49:23;;;;;;;3.55;3.42;;;;;;;6.69;99.71;101747.69;4416934;32;20148;-72
2021/11/08 06:51:50;;;;;;;4.57;4.37;;;;;;;6.52;99.81;101728.91;4401672;32;20112;-73
2021/11/08 06:54:16;;;;;;;3.60;3.50;;;;;;;6.69;100.00;101754.66;4396241;32;20797;-72
2021/11/08 06:56:53;;;;;;;4.87;4.68;;;;;;;6.69;99.95;101757.28;4391562;32;20067;-73
2021/11/08 06:59:19;;;;;;;3.40;3.30;;;;;;;6.66;100.00;101746.91;4397813;32;20074;-73
2021/11/08 07:01:48;;;;;;;5.53;5.28;;;;;;;6.03;99.45;101651.59;4397971;32;20100;-73
2021/11/08 07:04:13;;;;;;;3.67;3.58;;;;;;;5.55;99.44;101556.91;4399205;32;20472;-73
2021/11/08 07:06:39;;;;;;;4.90;4.70;;;;;;;6.41;100.00;101700.41;4394080;32;20248;-73
2021/11/08 07:09:04;;;;;;;3.70;3.60;;;;;;;6.58;100.00;101726.19;4397803;32;20065;-73
2021/11/08 07:11:30;;;;;;;3.78;3.65;;;;;;;6.75;99.40;101755.41;4387658;32;20447;-74
2021/11/08 07:13:55;;;;;;;3.50;3.40;;;;;;;6.53;99.38;101721.03;4400155;32;20153;-75
2021/11/08 07:16:20;;;;;;;5.50;5.25;;;;;;;6.78;99.86;101757.97;4383974;32;20074;-70
2021/11/08 07:18:46;;;;;;;5.68;5.43;;;;;;;6.77;100.00;101766.66;4393038;32;20082;-70
2021/11/08 07:21:11;;;;;;;3.50;3.40;;;;;;;6.83;100.00;101770.06;4398155;32;20494;-70
2021/11/08 07:23:37;;;;;;;5.20;5.00;;;;;;;6.85;99.84;101763.91;4384637;32;20101;-70
2021/11/08 07:26:02;;;;;;;3.60;3.50;;;;;;;6.90;99.99;101775.13;4383243;32;20529;-74
2021/11/08 07:28:27;;;;;;;3.50;3.40;;;;;;;6.97;99.84;101775.84;4398192;32;20085;-75
2021/11/08 07:30:53;;;;;;;3.75;3.65;;;;;;;7.03;99.45;101783.56;4378468;32;20093;-75
2021/11/08 07:33:18;;;;;;;3.60;3.50;;;;;;;6.77;99.79;101730.12;4391698;32;20152;-74
2021/11/08 07:35:44;;;;;;;5.32;5.07;;;;;;;7.16;99.55;101779.81;4381623;32;20071;-71
2021/11/08 07:38:09;;;;;;;3.58;3.47;;;;;;;7.24;99.18;101791.88;4389863;32;20090;-72
2021/11/08 07:40:34;;;;;;;4.75;4.55;;;;;;;7.31;98.58;101786.47;4385404;32;20100;-75
2021/11/08 07:43:00;;;;;;;3.60;3.50;;;;;;;6.88;98.40;101706.47;4386973;32;20496;-72
2021/11/08 07:45:26;;;;;;;3.90;3.70;;;;;;;6.25;97.30;101595.56;4406991;32;20073;-74
2021/11/08 07:47:53;;;;;;;3.70;3.60;;;;;;;7.10;96.69;101732.13;4392458;32;20106;-75
2021/11/08 07:50:18;;;;;;;3.62;3.53;;;;;;;7.54;96.90;101798.19;4379528;32;20110;-75
2021/11/08 07:52:43;;;;;;;4.93;4.72;;;;;;;7.58;96.26;101797.25;4395636;32;20089;-75
2021/11/08 07:55:09;;;;;;;3.47;3.37;;;;;;;7.63;96.54;101799.75;4411306;32;20062;-75
2021/11/08 07:57:34;;;;;;;4.57;4.37;;;;;;;7.69;95.26;101807.44;4393823;32;20063;-75
2021/11/08 07:59:59;;;;;;;3.92;3.75;;;;;;;7.73;95.40;101809.94;4379855;32;20085;-73
2021/11/08 08:02:25;;;;;;;3.62;3.53;;;;;;;7.65;94.82;101798.81;4396379;32;20128;-77
2021/11/08 08:04:50;;;;;;;3.83;3.70;;;;;;;7.68;92.55;101817.03;4395495;32;20090;-76
2021/11/08 08:07:16;;;;;;;3.60;3.50;;;;;;;7.34;93.24;101778.59;4385476;32;20603;-73
2021/11/08 08:09:41;;;;;;;4.30;4.10;;;;;;;7.25;93.07;101733.53;4393564;32;20085;-73
2021/11/08 08:12:07;;;;;;;3.90;3.70;;;;;;;6.94;92.81;101682.84;4397125;32;20952;-75
2021/11/08 08:14:33;;;;;;;4.15;3.97;;;;;;;7.26;93.28;101724.81;4387368;32;20423;-75
2021/11/08 08:17:02;;;;;;;3.80;3.70;;;;;;;7.87;92.21;101827.06;4374873;32;20089;-74
2021/11/08 08:19:28;;;;;;;3.50;3.40;;;;;;;6.81;93.13;101638.78;4392022;32;20416;-77
2021/11/08 08:21:53;;;;;;;3.60;3.50;;;;;;;7.64;92.56;101777.94;4375714;32;20418;-75
2021/11/08 08:24:19;;;;;;;4.18;3.97;;;;;;;7.53;92.05;101752.06;4399726;32;20416;-76
2021/11/08 08:26:44;;;;;;;6.40;6.10;;;;;;;7.66;91.99;101763.97;4395248;32;20247;-75
2021/11/08 08:29:10;;;;;;;3.70;3.60;;;;;;;8.05;92.01;101818.78;4396609;32;20102;-75
2021/11/08 08:31:40;;;;;;;4.95;4.75;;;;;;;8.15;92.24;101841.22;4378164;32;20259;-76
2021/11/08 08:34:05;;;;;;;3.90;3.70;;;;;;;7.94;90.91;101820.81;4411290;32;20601;-74
2021/11/08 08:36:30;;;;;;;4.07;3.87;;;;;;;7.98;90.64;101812.84;4398084;32;20192;-76
2021/11/08 08:38:56;;;;;;;3.90;3.70;;;;;;;8.19;90.65;101836.78;4396691;32;20075;-72
2021/11/08 08:41:21;;;;;;;4.10;3.90;;;;;;;8.30;90.10;101836.50;4386993;32;20474;-72
2021/11/08 08:43:47;;;;;;;5.05;4.85;;;;;;;8.38;89.79;101868.59;4387341;32;20074;-75
2021/11/08 08:46:13;;;;;;;4.18;3.97;;;;;;;8.51;89.92;101833.37;4392136;32;20077;-74
2021/11/08 08:48:39;;;;;;;5.65;5.35;;;;;;;8.66;89.09;101847.84;4406970;32;20596;-74
2021/11/08 08:51:05;;;;;;;4.10;3.90;;;;;;;8.79;89.07;101843.16;4389901;32;20069;-74
2021/11/08 08:53:31;;;;;;;3.72;3.60;;;;;;;8.76;87.68;101838.88;4394411;32;20082;-76
2021/11/08 08:55:56;;;;;;;3.60;3.50;;;;;;;8.37;87.67;101738.69;4391726;32;20143;-75
2021/11/08 08:58:21;;;;;;;3.70;3.60;;;;;;;8.75;87.18;101781.31;4396021;32;20078;-74
2021/11/08 09:00:48;;;;;;;5.05;4.85;;;;;;;9.04;86.89;101829.38;4385384;32;20200;-74
2021/11/08 09:03:17;;;;;;;4.57;4.18;;;;;;;9.23;86.87;101858.56;4405414;32;20092;-73
2021/11/08 09:05:44;;;;;;;5.45;5.25;;;;;;;8.93;85.55;101863.72;4382416;32;20638;-75
2021/11/08 09:08:09;;;;;;;4.10;3.90;;;;;;;9.15;86.21;101872.72;4404537;32;20072;-70
2021/11/08 09:10:35;;;;;;;5.35;5.15;;;;;;;8.45;84.63;101791.69;4382350;32;20593;-76
2021/11/08 09:13:00;;;;;;;4.00;3.80;;;;;;;9.04;85.10;101872.16;4406598;32;20090;-75
2021/11/08 09:15:26;;;;;;;4.10;3.90;;;;;;;9.13;85.03;101869.28;4390820;32;20062;-77
2021/11/08 09:17:52;;;;;;;4.20;4.00;;;;;;;9.11;85.05;101871.09;4391596;32;20078;-74
2021/11/08 09:20:17;;;;;;;4.00;3.80;;;;;;;8.89;83.69;101876.03;4391902;32;20345;-74
2021/11/08 09:22:44;;;;;;;5.45;5.25;;;;;;;8.72;84.45;101852.06;4395338;32;20627;-73
2021/11/08 09:25:09;;;;;;;3.80;3.70;;;;;;;8.80;85.62;101878.91;4369810;32;20131;-71
2021/11/08 09:27:35;;;;;;;4.10;3.90;;;;;;;7.78;85.47;101734.06;4371948;32;20916;-71
2021/11/08 09:30:00;;;;;;;3.78;3.67;;;;;;;8.56;85.81;101893.47;4396826;32;20085;-71
2021/11/08 09:32:26;;;;;;;4.00;3.80;;;;;;;8.47;86.43;101883.22;4395580;32;21188;-71
2021/11/08 09:34:52;;;;;;;4.30;4.10;;;;;;;8.59;86.01;101875.06;4379536;32;20737;-71
2021/11/08 09:37:18;;;;;;;3.72;3.62;;;;;;;8.86;85.65;101883.09;4396254;32;20964;-71
2021/11/08 09:39:45;;;;;;;5.32;5.12;;;;;;;8.98;84.66;101888.91;4400234;32;20082;-73
2021/11/08 09:42:12;;;;;;;4.07;3.87;;;;;;;8.63;84.01;101797.34;4343812;32;21144;-71
2021/11/08 09:44:38;;;;;;;4.00;3.80;;;;;;;8.70;82.56;101791.03;4403726;32;20085;-73
2021/11/08 09:47:05;;;;;;;3.60;3.50;;;;;;;9.28;81.56;101852.31;4401589;32;20151;-75
2021/11/08 09:49:31;;;;;;;4.15;4.00;;;;;;;9.42;80.70;101908.66;4398475;32;20494;-79
2021/11/08 09:51:58;;;;;;;4.32;3.90;;;;;;;9.18;81.10;101820.28;4385017;32;20090;-74
2021/11/08 09:54:27;;;;;;;4.10;3.90;;;;;;;9.39;79.74;101836.25;4410888;32;20076;-75
2021/11/08 09:56:53;;;;;;;4.28;4.07;;;;;;;9.77;79.48;101876.22;4399835;32;20140;-69
2021/11/08 09:59:20;;;;;;;4.10;3.90;;;;;;;9.57;79.30;101876.81;4403958;32;20206;-71
2021/11/08 10:01:47;;;;;;;5.68;5.45;;;;;;;9.39;81.34;101878.19;4411754;32;20550;-71
2021/11/08 10:04:14;;;;;;;4.50;4.30;;;;;;;9.48;81.54;101880.56;4408357;32;20726;-69
2021/11/08 10:06:40;;;;;;;5.50;5.25;;;;;;;9.33;82.05;101855.62;4398065;32;20168;-76
2021/11/08 10:09:08;;;;;;;3.72;3.62;;;;;;;9.54;81.65;101884.75;4404971;32;20115;-72
2021/11/08 10:11:35;;;;;;;4.68;4.47;;;;;;;9.52;81.71;101876.06;4405506;32;20178;-74
2021/11/08 10:14:00;;;;;;;4.65;4.45;;;;;;;8.54;81.33;101689.44;4397386;32;20068;-75
2021/11/08 10:16:27;;;;;;;4.20;4.00;;;;;;;9.86;81.14;101875.94;4410125;32;20631;-75
2021/11/08 10:18:55;;;;;;;3.80;3.70;;;;;;;10.17;80.39;101860.09;4402980;32;20068;-74
2021/11/08 10:21:29;;;;;;;4.10;3.90;;;;;;;10.48;78.76;101851.25;4389721;32;20069;-73
2021/11/08 10:23:56;;;;;;;4.30;4.10;;;;;;;10.82;74.71;101867.66;4410221;32;20675;-72
2021/11/08 10:26:24;;;;;;;4.25;4.05;;;;;;;11.07;75.09;101842.25;4414135;32;20073;-74
2021/11/08 10:28:52;;;;;;;4.70;4.50;;;;;;;11.22;72.59;101864.47;4408791;32;20349;-75
2021/11/08 10:31:17;;;;;;;4.20;4.00;;;;;;;10.76;73.40;101776.81;4409146;32;20195;-71
2021/11/08 10:33:43;;;;;;;5.15;4.95;;;;;;;11.40;72.53;101849.78;4406613;32;20441;-75
2021/11/08 10:36:16;;;;;;;4.15;3.95;;;;;;;11.45;71.46;101868.91;4405718;32;20125;-73
2021/11/08 10:38:44;;;;;;;5.85;5.55;;;;;;;11.16;73.11;101868.19;4409006;32;20080;-75
2021/11/08 10:41:17;;;;;;;4.62;4.22;;;;;;;10.84;72.45;101829.06;4405683;32;20904;-75
2021/11/08 10:43:54;;;;;;;5.72;5.50;;;;;;;10.81;71.96;101871.19;4394392;32;20072;-72
2021/11/08 10:46:28;;;;;;;4.40;4.20;;;;;;;10.25;73.20;101807.38;4406044;32;20435;-73
2021/11/08 10:49:00;;;;;;;4.03;3.83;;;;;;;10.37;74.41;101793.03;4393802;32;20742;-73
2021/11/08 10:51:27;;;;;;;4.35;4.15;;;;;;;10.96;73.81;101876.78;4411088;32;20069;-75
2021/11/08 10:53:58;;;;;;;4.15;3.95;;;;;;;11.06;73.50;101871.19;4404757;32;20082;-70
2021/11/08 10:56:29;;;;;;;4.60;4.40;;;;;;;10.68;73.29;101854.97;4422000;32;20145;-72
2021/11/08 10:58:55;;;;;;;4.47;4.28;;;;;;;8.99;74.48;101589.50;4392801;32;20088;-73
2021/11/08 11:01:26;;;;;;;4.10;3.90;;;;;;;9.62;74.53;101743.84;4407629;32;20167;-74
2021/11/08 11:03:53;;;;;;;4.68;4.47;;;;;;;9.15;76.48;101697.25;4390978;32;20780;-71
2021/11/08 11:06:19;;;;;;;4.20;4.00;;;;;;;10.09;76.62;101877.00;4405827;32;20208;-72
2021/11/08 11:08:50;;;;;;;6.03;5.72;;;;;;;10.33;76.81;101872.78;4396347;32;20092;-76
2021/11/08 11:11:16;;;;;;;4.47;4.28;;;;;;;10.72;76.35;101875.84;4404489;32;20069;-68
2021/11/08 11:13:48;;;;;;;5.68;5.45;;;;;;;10.88;74.74;101864.81;4396698;32;20076;-69
2021/11/08 11:16:13;;;;;;;4.00;3.80;;;;;;;10.06;75.47;101811.50;4409508;32;20556;-70
2021/11/08 11:18:39;;;;;;;5.37;5.18;;;;;;;10.73;75.66;101867.06;4392557;32;20086;-69
2021/11/08 11:21:17;;;;;;;4.12;3.92;;;;;;;10.86;74.31;101861.38;4396467;32;20087;-69
2021/11/08 11:23:44;;;;;;;5.32;5.12;;;;;;;10.51;74.96;101851.16;4409860;32;20548;-71
2021/11/08 11:26:11;;;;;;;6.12;5.82;;;;;;;10.10;75.48;101795.66;4419689;32;20068;-73
2021/11/08 11:28:40;;;;;;;5.60;5.40;;;;;;;10.02;75.05;101807.28;4400158;32;20084;-74
2021/11/08 11:31:21;;;;;;;4.20;4.00;;;;;;;10.60;76.37;101863.13;4421647;32;20103;-73
2021/11/08 11:33:48;;;;;;;5.18;4.97;;;;;;;10.72;75.42;101867.97;4425142;32;20658;-74
2021/11/08 11:36:17;;;;;;;4.50;4.30;;;;;;;9.74;74.68;101696.28;4410694;32;20175;-74
2021/11/08 11:38:44;;;;;;;5.15;4.95;;;;;;;10.69;74.70;101872.47;4410095;32;20672;-74
2021/11/08 11:41:18;;;;;;;4.40;4.20;;;;;;;10.87;74.47;101866.56;4413815;32;20064;-74
2021/11/08 11:43:47;;;;;;;5.80;5.55;;;;;;;10.87;73.80;101842.09;4407327;32;20086;-74
2021/11/08 11:46:20;;;;;;;4.07;3.92;;;;;;;10.62;73.39;101819.28;4412719;32;20848;-74
2021/11/08 11:48:46;;;;;;;5.57;5.18;;;;;;;10.75;73.84;101838.13;4409381;32;20079;-73
2021/11/08 11:51:21;;;;;;;4.00;3.80;;;;;;;10.86;74.29;101841.22;4412032;32;20088;-74
2021/11/08 11:53:46;;;;;;;5.65;5.35;;;;;;;10.85;73.96;101833.41;4391694;32;20070;-74
2021/11/08 11:56:13;;;;;;;4.10;3.90;;;;;;;10.92;72.75;101834.91;4396100;32;20090;-74
2021/11/08 11:58:39;;;;;;;5.57;5.37;;;;;;;11.11;73.28;101856.97;4386960;32;20082;-73
2021/11/08 12:01:05;;;;;;;4.47;4.28;;;;;;;11.21;72.42;101840.91;4388848;32;20098;-74
2021/11/08 12:03:31;;;;;;;4.57;4.37;;;;;;;11.21;72.02;101839.12;4388953;32;20116;-74
2021/11/08 12:05:56;;;;;;;4.90;4.60;;;;;;;11.59;72.02;101855.22;4404395;32;20151;-72
2021/11/08 12:08:22;;;;;;;4.60;4.40;;;;;;;11.65;71.50;101833.13;4398226;32;20066;-74
2021/11/08 12:10:51;;;;;;;4.95;4.75;;;;;;;11.44;71.13;101775.16;4384765;32;20082;-74
2021/11/08 12:13:21;;;;;;;4.40;4.20;;;;;;;11.80;70.98;101821.97;4405385;32;20109;-74
2021/11/08 12:15:47;;;;;;;5.68;5.40;;;;;;;11.70;68.96;101842.50;4386006;32;20216;-74
2021/11/08 12:18:14;;;;;;;4.20;4.00;;;;;;;11.30;69.78;101830.03;4404057;32;20074;-74
2021/11/08 12:20:47;;;;;;;4.35;4.15;;;;;;;11.33;71.68;101843.06;4403904;32;20080;-74
2021/11/08 12:23:21;;;;;;;4.40;4.20;;;;;;;11.65;71.50;101854.16;4395349;32;20069;-73
2021/11/08 12:25:46;;;;;;;5.40;5.12;;;;;;;11.69;71.23;101840.81;4410579;32;20153;-73
2021/11/08 12:28:17;;;;;;;4.40;4.20;;;;;;;11.98;71.42;101857.25;4394656;32;20096;-74
2021/11/08 12:30:45;;;;;;;6.22;5.93;;;;;;;12.08;69.79;101847.22;4404348;32;20059;-74
2021/11/08 12:33:34;;;;;;;4.50;4.30;;;;;;;12.09;68.93;101864.75;4412664;32;20090;-74
2021/11/08 12:36:21;;;;;;;4.43;4.22;;;;;;;11.96;69.46;101854.69;4399642;32;20066;-73
2021/11/08 12:39:10;;;;;;;5.65;5.45;;;;;;;11.46;70.35;101859.22;4411172;32;20475;-74
2021/11/08 12:41:48;;;;;;;5.28;5.07;;;;;;;11.35;71.19;101857.84;4404687;32;20426;-74
2021/11/08 12:44:16;;;;;;;4.20;4.00;;;;;;;11.17;71.93;101813.88;4392013;32;20135;-75
2021/11/08 12:46:45;;;;;;;6.25;5.95;;;;;;;10.98;72.06;101818.91;4399898;32;20572;-74
2021/11/08 12:49:19;;;;;;;4.12;3.92;;;;;;;11.02;72.31;101852.03;4399728;32;20081;-74
2021/11/08 12:51:58;;;;;;;5.25;5.05;;;;;;;11.22;72.39;101856.56;4403569;32;20276;-74
2021/11/08 12:54:29;;;;;;;4.50;4.30;;;;;;;11.41;72.18;101845.41;4394112;32;20086;-75
2021/11/08 12:57:05;;;;;;;4.20;4.00;;;;;;;11.56;70.98;101850.94;4423123;32;20564;-74
2021/11/08 12:59:34;;;;;;;4.22;4.03;;;;;;;11.42;70.18;101852.38;4395996;32;20074;-75
2021/11/08 13:02:10;;;;;;;4.20;4.00;;;;;;;10.96;70.73;101753.31;4401813;32;20135;-74
2021/11/08 13:04:44;;;;;;;4.97;4.78;;;;;;;11.46;71.08;101843.44;4397163;32;20070;-73
2021/11/08 13:07:10;;;;;;;4.43;4.22;;;;;;;11.32;71.60;101820.31;4388072;32;20062;-74
2021/11/08 13:09:39;;;;;;;4.40;4.20;;;;;;;11.32;71.19;101841.34;4392743;32;20076;-74
2021/11/08 13:12:10;;;;;;;4.22;4.03;;;;;;;11.40;71.48;101839.28;4395795;32;20102;-73
2021/11/08 13:14:36;;;;;;;6.10;5.80;;;;;;;10.77;71.90;101802.16;4393327;32;20117;-74